Terminal Aerodrome Forecast
Issued by NWS Jacksonville, FL

Home | Current Version | Previous Version | Text Only | Print | Product List | Glossary On
Versions: 1 2 3 4 5 6 7 8 9 10 11 12 13 14 15 16 17 18 19
000
FTUS42 KJAX 231943 AAB
TAFJAX
TAF AMD
KJAX 231943Z 2320/2418 06015KT P6SM VCTS FEW025CB SCT035 BKN250
     FM232100 06010KT P6SM SCT035 BKN250
     FM240200 05006KT P6SM SCT020 BKN050 BKN200
     FM241400 05013KT P6SM SCT025 BKN040=

USA.gov is the U.S. government's official web portal to all federal, state and local government web resources and services.